sensor_id;sensor_type;location;lat;lon;timestamp;temperature;humidity
837;DHT22;400;53.550;9.932;2023-04-25T00:02:02;9.30;99.90
837;DHT22;400;53.550;9.932;2023-04-25T00:04:29;9.30;99.90
837;DHT22;400;53.550;9.932;2023-04-25T00:06:59;9.20;99.90
837;DHT22;400;53.550;9.932;2023-04-25T00:09:28;9.10;99.90
837;DHT22;400;53.550;9.932;2023-04-25T00:11:54;9.10;99.90
837;DHT22;400;53.550;9.932;2023-04-25T00:14:21;9.10;99.90
837;DHT22;400;53.550;9.932;2023-04-25T00:16:49;9.20;99.90
837;DHT22;400;53.550;9.932;2023-04-25T00:19:18;9.20;99.90
837;DHT22;400;53.550;9.932;2023-04-25T00:21:45;9.30;99.90
837;DHT22;400;53.550;9.932;2023-04-25T00:24:12;9.20;99.90
837;DHT22;400;53.550;9.932;2023-04-25T00:26:39;9.00;99.90
837;DHT22;400;53.550;9.932;2023-04-25T00:29:06;9.10;99.90
837;DHT22;400;53.550;9.932;2023-04-25T00:31:33;9.10;99.90
837;DHT22;400;53.550;9.932;2023-04-25T00:34:00;9.10;99.90
837;DHT22;400;53.550;9.932;2023-04-25T00:36:28;9.10;99.90
837;DHT22;400;53.550;9.932;2023-04-25T00:38:55;9.20;99.90
837;DHT22;400;53.550;9.932;2023-04-25T00:41:22;9.10;99.90
837;DHT22;400;53.550;9.932;2023-04-25T00:43:51;9.00;99.90
837;DHT22;400;53.550;9.932;2023-04-25T00:46:18;9.00;99.90
837;DHT22;400;53.550;9.932;2023-04-25T00:48:45;9.00;99.90
837;DHT22;400;53.550;9.932;2023-04-25T00:51:15;9.00;99.90
837;DHT22;400;53.550;9.932;2023-04-25T00:53:44;9.00;99.90
837;DHT22;400;53.550;9.932;2023-04-25T00:56:12;8.90;99.90
837;DHT22;400;53.550;9.932;2023-04-25T00:58:40;9.00;99.90
837;DHT22;400;53.550;9.932;2023-04-25T01:01:07;9.00;99.90
837;DHT22;400;53.550;9.932;2023-04-25T01:03:37;8.90;99.90
837;DHT22;400;53.550;9.932;2023-04-25T01:06:07;8.90;99.90
837;DHT22;400;53.550;9.932;2023-04-25T01:08:34;8.90;99.90
837;DHT22;400;53.550;9.932;2023-04-25T01:11:02;8.80;99.90
837;DHT22;400;53.550;9.932;2023-04-25T01:13:30;8.90;99.90
837;DHT22;400;53.550;9.932;2023-04-25T01:15:57;8.80;99.90
837;DHT22;400;53.550;9.932;2023-04-25T01:18:24;8.70;99.90
837;DHT22;400;53.550;9.932;2023-04-25T01:20:52;8.70;99.90
837;DHT22;400;53.550;9.932;2023-04-25T01:23:20;8.60;99.90
837;DHT22;400;53.550;9.932;2023-04-25T01:25:48;8.70;99.90
837;DHT22;400;53.550;9.932;2023-04-25T01:28:16;8.70;99.90
837;DHT22;400;53.550;9.932;2023-04-25T01:30:43;8.70;99.90
837;DHT22;400;53.550;9.932;2023-04-25T01:33:11;8.60;99.90
837;DHT22;400;53.550;9.932;2023-04-25T01:35:39;8.60;99.90
837;DHT22;400;53.550;9.932;2023-04-25T01:38:06;8.60;99.90
837;DHT22;400;53.550;9.932;2023-04-25T01:40:37;8.70;99.90
837;DHT22;400;53.550;9.932;2023-04-25T01:43:06;8.70;99.90
837;DHT22;400;53.550;9.932;2023-04-25T01:45:34;8.70;99.90
837;DHT22;400;53.550;9.932;2023-04-25T01:48:02;8.60;99.90
837;DHT22;400;53.550;9.932;2023-04-25T01:50:29;8.60;99.90
837;DHT22;400;53.550;9.932;2023-04-25T01:52:56;8.60;99.90
837;DHT22;400;53.550;9.932;2023-04-25T01:55:23;8.60;99.90
837;DHT22;400;53.550;9.932;2023-04-25T01:57:51;8.60;99.90
837;DHT22;400;53.550;9.932;2023-04-25T02:00:18;8.60;99.90
837;DHT22;400;53.550;9.932;2023-04-25T02:02:46;8.50;99.90
837;DHT22;400;53.550;9.932;2023-04-25T02:05:13;8.50;99.90
837;DHT22;400;53.550;9.932;2023-04-25T02:07:40;8.50;99.90
837;DHT22;400;53.550;9.932;2023-04-25T02:10:08;8.40;99.90
837;DHT22;400;53.550;9.932;2023-04-25T02:12:35;8.40;99.90
837;DHT22;400;53.550;9.932;2023-04-25T02:15:05;8.40;99.90
837;DHT22;400;53.550;9.932;2023-04-25T02:17:32;8.40;99.90
837;DHT22;400;53.550;9.932;2023-04-25T02:19:59;8.40;99.90
837;DHT22;400;53.550;9.932;2023-04-25T02:22:26;8.40;99.90
837;DHT22;400;53.550;9.932;2023-04-25T02:24:55;8.40;99.90
837;DHT22;400;53.550;9.932;2023-04-25T02:27:22;8.40;99.90
837;DHT22;400;53.550;9.932;2023-04-25T02:29:49;8.30;99.90
837;DHT22;400;53.550;9.932;2023-04-25T02:32:17;8.30;99.90
837;DHT22;400;53.550;9.932;2023-04-25T02:34:44;8.30;99.90
837;DHT22;400;53.550;9.932;2023-04-25T02:37:11;8.30;99.90
837;DHT22;400;53.550;9.932;2023-04-25T02:39:37;8.20;99.90
837;DHT22;400;53.550;9.932;2023-04-25T02:42:05;8.20;99.90
837;DHT22;400;53.550;9.932;2023-04-25T02:44:32;8.10;99.90
837;DHT22;400;53.550;9.932;2023-04-25T02:46:58;8.10;99.90
837;DHT22;400;53.550;9.932;2023-04-25T02:49:27;8.10;99.90
837;DHT22;400;53.550;9.932;2023-04-25T02:51:53;8.10;99.90
837;DHT22;400;53.550;9.932;2023-04-25T02:54:20;8.20;99.90
837;DHT22;400;53.550;9.932;2023-04-25T02:56:47;8.10;99.90
837;DHT22;400;53.550;9.932;2023-04-25T02:59:14;8.10;99.90
837;DHT22;400;53.550;9.932;2023-04-25T03:01:41;8.10;99.90
837;DHT22;400;53.550;9.932;2023-04-25T03:04:09;8.10;99.90
837;DHT22;400;53.550;9.932;2023-04-25T03:06:37;8.20;99.90
837;DHT22;400;53.550;9.932;2023-04-25T03:09:03;8.30;99.90
837;DHT22;400;53.550;9.932;2023-04-25T03:11:30;8.20;99.90
837;DHT22;400;53.550;9.932;2023-04-25T03:13:57;8.10;99.90
837;DHT22;400;53.550;9.932;2023-04-25T03:16:24;8.00;99.90
837;DHT22;400;53.550;9.932;2023-04-25T03:18:51;8.00;99.90
837;DHT22;400;53.550;9.932;2023-04-25T03:21:18;7.90;99.90
837;DHT22;400;53.550;9.932;2023-04-25T03:23:46;7.80;99.90
837;DHT22;400;53.550;9.932;2023-04-25T03:26:13;7.80;99.90
837;DHT22;400;53.550;9.932;2023-04-25T03:28:39;7.70;99.90
837;DHT22;400;53.550;9.932;2023-04-25T03:31:06;7.70;99.90
837;DHT22;400;53.550;9.932;2023-04-25T03:33:33;7.60;99.90
837;DHT22;400;53.550;9.932;2023-04-25T03:36:00;7.60;99.90
837;DHT22;400;53.550;9.932;2023-04-25T03:38:27;7.60;99.90
837;DHT22;400;53.550;9.932;2023-04-25T03:40:55;7.50;99.90
837;DHT22;400;53.550;9.932;2023-04-25T03:43:22;7.50;99.90
837;DHT22;400;53.550;9.932;2023-04-25T03:45:49;7.60;99.90
837;DHT22;400;53.550;9.932;2023-04-25T03:48:17;7.50;99.90
837;DHT22;400;53.550;9.932;2023-04-25T03:50:44;7.60;99.90
837;DHT22;400;53.550;9.932;2023-04-25T03:53:12;7.50;99.90
837;DHT22;400;53.550;9.932;2023-04-25T03:55:38;7.50;99.90
837;DHT22;400;53.550;9.932;2023-04-25T03:58:07;7.50;99.90
837;DHT22;400;53.550;9.932;2023-04-25T04:00:35;7.50;99.90
837;DHT22;400;53.550;9.932;2023-04-25T04:03:02;7.50;99.90
837;DHT22;400;53.550;9.932;2023-04-25T04:05:30;7.50;99.90
837;DHT22;400;53.550;9.932;2023-04-25T04:07:59;7.40;99.90
837;DHT22;400;53.550;9.932;2023-04-25T04:10:27;7.40;99.90
837;DHT22;400;53.550;9.932;2023-04-25T04:12:54;7.30;99.90
837;DHT22;400;53.550;9.932;2023-04-25T04:15:22;7.40;99.90
837;DHT22;400;53.550;9.932;2023-04-25T04:17:50;7.40;99.90
837;DHT22;400;53.550;9.932;2023-04-25T04:20:19;7.40;99.90
837;DHT22;400;53.550;9.932;2023-04-25T04:22:47;7.50;99.90
837;DHT22;400;53.550;9.932;2023-04-25T04:25:15;7.50;99.90
837;DHT22;400;53.550;9.932;2023-04-25T04:27:43;7.60;99.90
837;DHT22;400;53.550;9.932;2023-04-25T04:30:12;7.60;99.90
837;DHT22;400;53.550;9.932;2023-04-25T04:32:40;7.50;99.90
837;DHT22;400;53.550;9.932;2023-04-25T04:35:08;7.50;99.90
837;DHT22;400;53.550;9.932;2023-04-25T04:37:36;7.50;99.90
837;DHT22;400;53.550;9.932;2023-04-25T04:40:04;7.50;99.90
837;DHT22;400;53.550;9.932;2023-04-25T04:42:32;7.60;99.90
837;DHT22;400;53.550;9.932;2023-04-25T04:44:59;7.60;99.90
837;DHT22;400;53.550;9.932;2023-04-25T04:47:27;7.50;99.90
837;DHT22;400;53.550;9.932;2023-04-25T04:49:58;7.50;99.90
837;DHT22;400;53.550;9.932;2023-04-25T04:52:25;7.60;99.90
837;DHT22;400;53.550;9.932;2023-04-25T04:54:53;7.60;99.90
837;DHT22;400;53.550;9.932;2023-04-25T04:57:20;7.60;99.90
837;DHT22;400;53.550;9.932;2023-04-25T04:59:47;7.60;99.90
837;DHT22;400;53.550;9.932;2023-04-25T05:02:15;7.60;99.90
837;DHT22;400;53.550;9.932;2023-04-25T05:04:43;7.70;99.90
837;DHT22;400;53.550;9.932;2023-04-25T05:07:12;7.60;99.90
837;DHT22;400;53.550;9.932;2023-04-25T05:09:40;7.60;99.90
837;DHT22;400;53.550;9.932;2023-04-25T05:12:07;7.50;99.90
837;DHT22;400;53.550;9.932;2023-04-25T05:14:35;7.50;99.90
837;DHT22;400;53.550;9.932;2023-04-25T05:17:02;7.40;99.90
837;DHT22;400;53.550;9.932;2023-04-25T05:19:32;7.50;99.90
837;DHT22;400;53.550;9.932;2023-04-25T05:21:58;7.40;99.90
837;DHT22;400;53.550;9.932;2023-04-25T05:24:29;7.40;99.90
837;DHT22;400;53.550;9.932;2023-04-25T05:26:59;7.40;99.90
837;DHT22;400;53.550;9.932;2023-04-25T05:29:27;7.30;99.90
837;DHT22;400;53.550;9.932;2023-04-25T05:31:56;7.40;99.90
837;DHT22;400;53.550;9.932;2023-04-25T05:34:27;7.40;99.90
837;DHT22;400;53.550;9.932;2023-04-25T05:36:58;7.40;99.90
837;DHT22;400;53.550;9.932;2023-04-25T05:39:28;7.50;99.90
837;DHT22;400;53.550;9.932;2023-04-25T05:41:55;7.50;99.90
837;DHT22;400;53.550;9.932;2023-04-25T05:44:26;7.50;99.90
837;DHT22;400;53.550;9.932;2023-04-25T05:46:57;7.60;99.90
837;DHT22;400;53.550;9.932;2023-04-25T05:49:28;7.50;99.90
837;DHT22;400;53.550;9.932;2023-04-25T05:51:57;7.50;99.90
837;DHT22;400;53.550;9.932;2023-04-25T05:54:24;7.60;99.90
837;DHT22;400;53.550;9.932;2023-04-25T05:56:52;7.60;99.90
837;DHT22;400;53.550;9.932;2023-04-25T05:59:19;7.70;99.90
837;DHT22;400;53.550;9.932;2023-04-25T06:01:47;7.70;99.90
837;DHT22;400;53.550;9.932;2023-04-25T06:04:13;7.70;99.90
837;DHT22;400;53.550;9.932;2023-04-25T06:06:42;7.80;99.90
837;DHT22;400;53.550;9.932;2023-04-25T06:09:09;7.70;99.90
837;DHT22;400;53.550;9.932;2023-04-25T06:11:37;7.80;99.90
837;DHT22;400;53.550;9.932;2023-04-25T06:14:05;7.90;99.90
837;DHT22;400;53.550;9.932;2023-04-25T06:16:32;7.90;99.90
837;DHT22;400;53.550;9.932;2023-04-25T06:18:59;7.90;99.90
837;DHT22;400;53.550;9.932;2023-04-25T06:21:27;7.90;99.90
837;DHT22;400;53.550;9.932;2023-04-25T06:23:54;8.00;99.90
837;DHT22;400;53.550;9.932;2023-04-25T06:26:23;8.00;99.90
837;DHT22;400;53.550;9.932;2023-04-25T06:28:51;8.10;99.90
837;DHT22;400;53.550;9.932;2023-04-25T06:31:19;8.10;99.90
837;DHT22;400;53.550;9.932;2023-04-25T06:33:47;8.10;99.90
837;DHT22;400;53.550;9.932;2023-04-25T06:36:17;8.00;99.90
837;DHT22;400;53.550;9.932;2023-04-25T06:38:46;8.00;99.90
837;DHT22;400;53.550;9.932;2023-04-25T06:41:16;8.00;99.90
837;DHT22;400;53.550;9.932;2023-04-25T06:43:44;8.00;99.90
837;DHT22;400;53.550;9.932;2023-04-25T06:46:15;7.90;99.90
837;DHT22;400;53.550;9.932;2023-04-25T06:48:44;8.00;99.90
837;DHT22;400;53.550;9.932;2023-04-25T06:51:14;8.00;99.90
837;DHT22;400;53.550;9.932;2023-04-25T06:53:44;8.00;99.90
837;DHT22;400;53.550;9.932;2023-04-25T06:56:14;8.00;99.90
837;DHT22;400;53.550;9.932;2023-04-25T06:58:44;8.10;99.90
837;DHT22;400;53.550;9.932;2023-04-25T07:01:12;8.30;99.90
837;DHT22;400;53.550;9.932;2023-04-25T07:03:42;8.30;99.90
837;DHT22;400;53.550;9.932;2023-04-25T07:06:11;8.30;99.90
837;DHT22;400;53.550;9.932;2023-04-25T07:08:38;8.30;99.90
837;DHT22;400;53.550;9.932;2023-04-25T07:11:05;8.40;99.90
837;DHT22;400;53.550;9.932;2023-04-25T07:13:32;8.30;99.90
837;DHT22;400;53.550;9.932;2023-04-25T07:16:00;8.30;99.90
837;DHT22;400;53.550;9.932;2023-04-25T07:18:32;8.50;99.90
837;DHT22;400;53.550;9.932;2023-04-25T07:21:05;8.40;99.90
837;DHT22;400;53.550;9.932;2023-04-25T07:23:35;8.50;99.90
837;DHT22;400;53.550;9.932;2023-04-25T07:26:02;8.40;99.90
837;DHT22;400;53.550;9.932;2023-04-25T07:28:29;8.40;99.90
837;DHT22;400;53.550;9.932;2023-04-25T07:30:56;8.40;99.90
837;DHT22;400;53.550;9.932;2023-04-25T07:33:24;8.60;99.90
837;DHT22;400;53.550;9.932;2023-04-25T07:35:53;8.60;99.90
837;DHT22;400;53.550;9.932;2023-04-25T07:38:23;8.50;99.90
837;DHT22;400;53.550;9.932;2023-04-25T07:40:53;8.40;99.90
837;DHT22;400;53.550;9.932;2023-04-25T07:43:21;8.60;99.90
837;DHT22;400;53.550;9.932;2023-04-25T07:45:49;8.60;99.90
837;DHT22;400;53.550;9.932;2023-04-25T07:48:18;8.60;99.90
837;DHT22;400;53.550;9.932;2023-04-25T07:50:45;8.70;99.90
837;DHT22;400;53.550;9.932;2023-04-25T07:53:13;8.70;99.90
837;DHT22;400;53.550;9.932;2023-04-25T07:55:45;8.90;99.90
837;DHT22;400;53.550;9.932;2023-04-25T07:58:18;8.90;99.90
837;DHT22;400;53.550;9.932;2023-04-25T08:00:51;9.00;99.90
837;DHT22;400;53.550;9.932;2023-04-25T08:03:19;9.10;99.90
837;DHT22;400;53.550;9.932;2023-04-25T08:05:48;9.10;99.90
837;DHT22;400;53.550;9.932;2023-04-25T08:08:15;9.20;99.90
837;DHT22;400;53.550;9.932;2023-04-25T08:10:42;9.30;99.90
837;DHT22;400;53.550;9.932;2023-04-25T08:13:09;9.40;99.90
837;DHT22;400;53.550;9.932;2023-04-25T08:15:40;9.30;99.90
837;DHT22;400;53.550;9.932;2023-04-25T08:18:13;9.50;99.90
837;DHT22;400;53.550;9.932;2023-04-25T08:20:39;9.50;99.90
837;DHT22;400;53.550;9.932;2023-04-25T08:23:07;9.40;99.90
837;DHT22;400;53.550;9.932;2023-04-25T08:25:34;9.40;99.90
837;DHT22;400;53.550;9.932;2023-04-25T08:28:01;9.40;99.90
837;DHT22;400;53.550;9.932;2023-04-25T08:30:28;9.40;99.90
837;DHT22;400;53.550;9.932;2023-04-25T08:32:59;9.30;99.90
837;DHT22;400;53.550;9.932;2023-04-25T08:35:31;9.30;99.90
837;DHT22;400;53.550;9.932;2023-04-25T08:38:00;9.40;99.90
837;DHT22;400;53.550;9.932;2023-04-25T08:40:28;9.60;99.90
837;DHT22;400;53.550;9.932;2023-04-25T08:42:57;9.50;99.90
837;DHT22;400;53.550;9.932;2023-04-25T08:45:26;9.40;99.90
837;DHT22;400;53.550;9.932;2023-04-25T08:47:57;9.50;99.90
837;DHT22;400;53.550;9.932;2023-04-25T08:50:26;9.40;99.90
837;DHT22;400;53.550;9.932;2023-04-25T08:52:57;9.40;99.90
837;DHT22;400;53.550;9.932;2023-04-25T08:55:27;9.40;99.90
837;DHT22;400;53.550;9.932;2023-04-25T08:57:55;9.30;99.90
837;DHT22;400;53.550;9.932;2023-04-25T09:00:23;9.30;99.90
837;DHT22;400;53.550;9.932;2023-04-25T09:02:52;9.20;99.90
837;DHT22;400;53.550;9.932;2023-04-25T09:05:22;9.10;99.90
837;DHT22;400;53.550;9.932;2023-04-25T09:07:49;8.90;99.90
837;DHT22;400;53.550;9.932;2023-04-25T09:10:16;8.90;99.90
837;DHT22;400;53.550;9.932;2023-04-25T09:12:43;8.70;99.90
837;DHT22;400;53.550;9.932;2023-04-25T09:15:12;8.70;99.90
837;DHT22;400;53.550;9.932;2023-04-25T09:17:41;8.70;99.90
837;DHT22;400;53.550;9.932;2023-04-25T09:20:11;8.70;99.90
837;DHT22;400;53.550;9.932;2023-04-25T09:22:42;8.70;99.90
837;DHT22;400;53.550;9.932;2023-04-25T09:25:12;8.80;99.90
837;DHT22;400;53.550;9.932;2023-04-25T09:27:50;8.90;99.90
837;DHT22;400;53.550;9.932;2023-04-25T09:30:28;8.80;99.90
837;DHT22;400;53.550;9.932;2023-04-25T09:32:56;8.90;99.90
837;DHT22;400;53.550;9.932;2023-04-25T09:35:25;9.10;99.90
837;DHT22;400;53.550;9.932;2023-04-25T09:37:55;9.50;99.90
837;DHT22;400;53.550;9.932;2023-04-25T09:40:22;9.70;99.90
837;DHT22;400;53.550;9.932;2023-04-25T09:42:52;9.20;99.90
837;DHT22;400;53.550;9.932;2023-04-25T09:45:19;9.30;99.90
837;DHT22;400;53.550;9.932;2023-04-25T09:47:46;9.00;99.90
837;DHT22;400;53.550;9.932;2023-04-25T09:50:17;9.00;99.90
837;DHT22;400;53.550;9.932;2023-04-25T09:52:44;8.70;99.90
837;DHT22;400;53.550;9.932;2023-04-25T09:55:13;8.60;99.90
837;DHT22;400;53.550;9.932;2023-04-25T09:57:40;8.70;99.90
837;DHT22;400;53.550;9.932;2023-04-25T10:00:09;8.90;99.90
837;DHT22;400;53.550;9.932;2023-04-25T10:02:42;9.00;99.90
837;DHT22;400;53.550;9.932;2023-04-25T10:05:14;9.00;99.90
837;DHT22;400;53.550;9.932;2023-04-25T10:07:46;9.30;99.90
837;DHT22;400;53.550;9.932;2023-04-25T10:10:14;9.50;99.90
837;DHT22;400;53.550;9.932;2023-04-25T10:12:42;9.60;99.90
837;DHT22;400;53.550;9.932;2023-04-25T10:15:10;9.60;99.90
837;DHT22;400;53.550;9.932;2023-04-25T10:17:40;9.80;99.90
837;DHT22;400;53.550;9.932;2023-04-25T10:20:10;9.90;99.90
837;DHT22;400;53.550;9.932;2023-04-25T10:22:42;9.60;99.90
837;DHT22;400;53.550;9.932;2023-04-25T10:25:15;9.70;99.90
837;DHT22;400;53.550;9.932;2023-04-25T10:27:42;9.60;99.90
837;DHT22;400;53.550;9.932;2023-04-25T10:30:14;9.80;99.90
837;DHT22;400;53.550;9.932;2023-04-25T10:32:42;9.90;99.90
837;DHT22;400;53.550;9.932;2023-04-25T10:35:14;9.90;99.90
837;DHT22;400;53.550;9.932;2023-04-25T10:38:04;10.00;99.90
837;DHT22;400;53.550;9.932;2023-04-25T10:40:44;9.90;99.90
837;DHT22;400;53.550;9.932;2023-04-25T10:43:37;9.70;99.90
837;DHT22;400;53.550;9.932;2023-04-25T10:46:19;9.80;99.90
837;DHT22;400;53.550;9.932;2023-04-25T10:48:52;9.90;99.90
837;DHT22;400;53.550;9.932;2023-04-25T10:51:21;10.00;99.90
837;DHT22;400;53.550;9.932;2023-04-25T10:53:58;10.00;99.90
837;DHT22;400;53.550;9.932;2023-04-25T10:56:28;10.00;99.90
837;DHT22;400;53.550;9.932;2023-04-25T10:59:06;10.00;99.90
837;DHT22;400;53.550;9.932;2023-04-25T11:01:37;10.20;99.90
837;DHT22;400;53.550;9.932;2023-04-25T11:04:04;10.00;99.90
837;DHT22;400;53.550;9.932;2023-04-25T11:06:43;10.00;99.90
837;DHT22;400;53.550;9.932;2023-04-25T11:09:13;10.20;99.90
837;DHT22;400;53.550;9.932;2023-04-25T11:11:41;10.10;99.90
837;DHT22;400;53.550;9.932;2023-04-25T11:14:10;10.10;99.90
837;DHT22;400;53.550;9.932;2023-04-25T11:16:38;10.00;99.90
837;DHT22;400;53.550;9.932;2023-04-25T11:19:07;10.20;99.90
837;DHT22;400;53.550;9.932;2023-04-25T11:21:38;10.40;99.90
837;DHT22;400;53.550;9.932;2023-04-25T11:24:13;10.60;99.90
837;DHT22;400;53.550;9.932;2023-04-25T11:26:48;10.60;99.90
837;DHT22;400;53.550;9.932;2023-04-25T11:29:17;10.70;99.90
837;DHT22;400;53.550;9.932;2023-04-25T11:31:45;10.90;99.90
837;DHT22;400;53.550;9.932;2023-04-25T11:34:19;11.00;99.90
837;DHT22;400;53.550;9.932;2023-04-25T11:36:52;10.50;99.90
837;DHT22;400;53.550;9.932;2023-04-25T11:39:25;9.20;99.90
837;DHT22;400;53.550;9.932;2023-04-25T11:41:59;8.80;99.90
837;DHT22;400;53.550;9.932;2023-04-25T11:44:30;8.50;99.90
837;DHT22;400;53.550;9.932;2023-04-25T11:46:56;8.60;99.90
837;DHT22;400;53.550;9.932;2023-04-25T11:49:24;8.60;99.90
837;DHT22;400;53.550;9.932;2023-04-25T11:51:51;8.50;99.90
837;DHT22;400;53.550;9.932;2023-04-25T11:54:18;8.50;99.90
837;DHT22;400;53.550;9.932;2023-04-25T11:56:45;8.60;99.90
837;DHT22;400;53.550;9.932;2023-04-25T11:59:15;8.60;99.90
837;DHT22;400;53.550;9.932;2023-04-25T12:01:49;8.60;99.90
837;DHT22;400;53.550;9.932;2023-04-25T12:04:18;8.80;99.90
837;DHT22;400;53.550;9.932;2023-04-25T12:06:47;9.10;99.90
837;DHT22;400;53.550;9.932;2023-04-25T12:09:16;9.40;99.90
837;DHT22;400;53.550;9.932;2023-04-25T12:11:48;9.60;99.90
837;DHT22;400;53.550;9.932;2023-04-25T12:14:26;9.60;99.90
837;DHT22;400;53.550;9.932;2023-04-25T12:16:57;9.80;99.90
837;DHT22;400;53.550;9.932;2023-04-25T12:19:24;10.30;99.90
837;DHT22;400;53.550;9.932;2023-04-25T12:21:52;10.50;99.90
837;DHT22;400;53.550;9.932;2023-04-25T12:24:22;10.50;99.90
837;DHT22;400;53.550;9.932;2023-04-25T12:26:52;10.50;99.90
837;DHT22;400;53.550;9.932;2023-04-25T12:29:21;10.30;99.90
837;DHT22;400;53.550;9.932;2023-04-25T12:31:51;10.10;99.90
837;DHT22;400;53.550;9.932;2023-04-25T12:34:19;10.10;99.90
837;DHT22;400;53.550;9.932;2023-04-25T12:36:46;10.00;99.90
837;DHT22;400;53.550;9.932;2023-04-25T12:39:17;9.90;99.90
837;DHT22;400;53.550;9.932;2023-04-25T12:41:44;9.90;99.90
837;DHT22;400;53.550;9.932;2023-04-25T12:44:12;10.10;99.90
837;DHT22;400;53.550;9.932;2023-04-25T12:46:39;10.30;99.90
837;DHT22;400;53.550;9.932;2023-04-25T12:49:10;10.50;99.90
837;DHT22;400;53.550;9.932;2023-04-25T12:51:39;10.50;99.90
837;DHT22;400;53.550;9.932;2023-04-25T12:54:08;10.50;99.90
837;DHT22;400;53.550;9.932;2023-04-25T12:56:36;10.60;99.90
837;DHT22;400;53.550;9.932;2023-04-25T12:59:03;10.20;99.90
837;DHT22;400;53.550;9.932;2023-04-25T13:01:30;9.90;99.90
837;DHT22;400;53.550;9.932;2023-04-25T13:03:57;10.10;99.90
837;DHT22;400;53.550;9.932;2023-04-25T13:06:26;10.20;99.90
837;DHT22;400;53.550;9.932;2023-04-25T13:08:54;10.30;99.90
837;DHT22;400;53.550;9.932;2023-04-25T13:11:23;10.60;99.90
837;DHT22;400;53.550;9.932;2023-04-25T13:13:50;10.60;99.90
837;DHT22;400;53.550;9.932;2023-04-25T13:16:18;10.70;99.90
837;DHT22;400;53.550;9.932;2023-04-25T13:18:48;10.00;99.90
837;DHT22;400;53.550;9.932;2023-04-25T13:21:15;9.30;99.90
837;DHT22;400;53.550;9.932;2023-04-25T13:23:44;9.10;99.90
837;DHT22;400;53.550;9.932;2023-04-25T13:26:12;8.80;99.90
837;DHT22;400;53.550;9.932;2023-04-25T13:28:38;8.90;99.90
837;DHT22;400;53.550;9.932;2023-04-25T13:31:07;8.90;99.90
837;DHT22;400;53.550;9.932;2023-04-25T13:33:33;8.90;99.90
837;DHT22;400;53.550;9.932;2023-04-25T13:36:02;9.10;99.90
837;DHT22;400;53.550;9.932;2023-04-25T13:38:29;9.30;99.90
837;DHT22;400;53.550;9.932;2023-04-25T13:41:01;9.30;99.90
837;DHT22;400;53.550;9.932;2023-04-25T13:43:28;9.30;99.90
837;DHT22;400;53.550;9.932;2023-04-25T13:45:55;9.50;99.90
837;DHT22;400;53.550;9.932;2023-04-25T13:48:24;9.70;99.90
837;DHT22;400;53.550;9.932;2023-04-25T13:50:52;9.60;99.90
837;DHT22;400;53.550;9.932;2023-04-25T13:53:19;9.30;99.90
837;DHT22;400;53.550;9.932;2023-04-25T13:55:50;8.60;99.90
837;DHT22;400;53.550;9.932;2023-04-25T13:58:20;8.30;99.90
837;DHT22;400;53.550;9.932;2023-04-25T14:00:52;8.00;99.90
837;DHT22;400;53.550;9.932;2023-04-25T14:03:21;8.00;99.90
837;DHT22;400;53.550;9.932;2023-04-25T14:05:48;8.00;99.90
837;DHT22;400;53.550;9.932;2023-04-25T14:08:14;8.20;99.90
837;DHT22;400;53.550;9.932;2023-04-25T14:10:41;8.40;99.90
837;DHT22;400;53.550;9.932;2023-04-25T14:13:08;8.50;99.90
837;DHT22;400;53.550;9.932;2023-04-25T14:15:38;8.90;99.90
837;DHT22;400;53.550;9.932;2023-04-25T14:18:05;9.10;99.90
837;DHT22;400;53.550;9.932;2023-04-25T14:20:32;9.20;99.90
837;DHT22;400;53.550;9.932;2023-04-25T14:22:59;9.40;99.90
837;DHT22;400;53.550;9.932;2023-04-25T14:25:27;9.30;99.90
837;DHT22;400;53.550;9.932;2023-04-25T14:27:54;9.50;99.90
837;DHT22;400;53.550;9.932;2023-04-25T14:30:22;9.50;99.90
837;DHT22;400;53.550;9.932;2023-04-25T14:32:51;9.50;99.90
837;DHT22;400;53.550;9.932;2023-04-25T14:35:18;9.40;99.90
837;DHT22;400;53.550;9.932;2023-04-25T14:37:45;9.40;99.90
837;DHT22;400;53.550;9.932;2023-04-25T14:40:13;9.30;99.90
837;DHT22;400;53.550;9.932;2023-04-25T14:42:41;9.30;99.90
837;DHT22;400;53.550;9.932;2023-04-25T14:45:11;9.40;99.90
837;DHT22;400;53.550;9.932;2023-04-25T14:47:42;9.60;99.90
837;DHT22;400;53.550;9.932;2023-04-25T14:50:12;9.80;99.90
837;DHT22;400;53.550;9.932;2023-04-25T14:52:39;9.70;99.90
837;DHT22;400;53.550;9.932;2023-04-25T14:55:07;9.70;99.90
837;DHT22;400;53.550;9.932;2023-04-25T14:57:34;9.90;99.90
837;DHT22;400;53.550;9.932;2023-04-25T15:00:02;10.00;99.90
837;DHT22;400;53.550;9.932;2023-04-25T15:02:30;10.20;99.90
837;DHT22;400;53.550;9.932;2023-04-25T15:04:57;10.30;99.90
837;DHT22;400;53.550;9.932;2023-04-25T15:07:26;10.00;99.90
837;DHT22;400;53.550;9.932;2023-04-25T15:09:52;10.00;99.90
837;DHT22;400;53.550;9.932;2023-04-25T15:12:21;9.80;99.90
837;DHT22;400;53.550;9.932;2023-04-25T15:14:49;9.40;99.90
837;DHT22;400;53.550;9.932;2023-04-25T15:17:17;9.40;99.90
837;DHT22;400;53.550;9.932;2023-04-25T15:19:44;9.30;99.90
837;DHT22;400;53.550;9.932;2023-04-25T15:22:11;9.30;99.90
837;DHT22;400;53.550;9.932;2023-04-25T15:24:39;9.10;99.90
837;DHT22;400;53.550;9.932;2023-04-25T15:27:06;9.00;99.90
837;DHT22;400;53.550;9.932;2023-04-25T15:29:34;9.10;99.90
837;DHT22;400;53.550;9.932;2023-04-25T15:32:02;9.30;99.90
837;DHT22;400;53.550;9.932;2023-04-25T15:34:29;9.40;99.90
837;DHT22;400;53.550;9.932;2023-04-25T15:36:56;9.50;99.90
837;DHT22;400;53.550;9.932;2023-04-25T15:39:23;9.50;99.90
837;DHT22;400;53.550;9.932;2023-04-25T15:41:52;9.50;99.90
837;DHT22;400;53.550;9.932;2023-04-25T15:44:19;9.50;99.90
837;DHT22;400;53.550;9.932;2023-04-25T15:46:45;9.60;99.90
837;DHT22;400;53.550;9.932;2023-04-25T15:49:13;9.70;99.90
837;DHT22;400;53.550;9.932;2023-04-25T15:51:41;9.80;99.90
837;DHT22;400;53.550;9.932;2023-04-25T15:54:07;9.90;99.90
837;DHT22;400;53.550;9.932;2023-04-25T15:56:36;9.80;99.90
837;DHT22;400;53.550;9.932;2023-04-25T15:59:07;9.80;99.90
837;DHT22;400;53.550;9.932;2023-04-25T16:01:39;9.70;99.90
837;DHT22;400;53.550;9.932;2023-04-25T16:04:08;9.70;99.90
837;DHT22;400;53.550;9.932;2023-04-25T16:06:35;9.50;99.90
837;DHT22;400;53.550;9.932;2023-04-25T16:09:03;9.40;99.90
837;DHT22;400;53.550;9.932;2023-04-25T16:11:31;9.50;99.90
837;DHT22;400;53.550;9.932;2023-04-25T16:13:58;9.60;99.90
837;DHT22;400;53.550;9.932;2023-04-25T16:16:26;9.70;99.90
837;DHT22;400;53.550;9.932;2023-04-25T16:18:53;9.60;99.90
837;DHT22;400;53.550;9.932;2023-04-25T16:21:20;9.40;99.90
837;DHT22;400;53.550;9.932;2023-04-25T16:23:47;9.40;99.90
837;DHT22;400;53.550;9.932;2023-04-25T16:26:14;9.30;99.90
837;DHT22;400;53.550;9.932;2023-04-25T16:28:42;9.40;99.90
837;DHT22;400;53.550;9.932;2023-04-25T16:31:12;9.60;99.90
837;DHT22;400;53.550;9.932;2023-04-25T16:33:42;9.90;99.90
837;DHT22;400;53.550;9.932;2023-04-25T16:36:09;10.40;99.90
837;DHT22;400;53.550;9.932;2023-04-25T16:38:37;11.10;99.90
837;DHT22;400;53.550;9.932;2023-04-25T16:41:05;11.50;99.90
837;DHT22;400;53.550;9.932;2023-04-25T16:43:32;11.70;99.90
837;DHT22;400;53.550;9.932;2023-04-25T16:46:00;12.10;99.90
837;DHT22;400;53.550;9.932;2023-04-25T16:48:29;12.50;99.90
837;DHT22;400;53.550;9.932;2023-04-25T16:50:57;12.90;99.80
837;DHT22;400;53.550;9.932;2023-04-25T16:53:24;13.40;99.00
837;DHT22;400;53.550;9.932;2023-04-25T16:55:51;12.60;99.30
837;DHT22;400;53.550;9.932;2023-04-25T16:58:20;11.90;99.90